Terminal Aerodrome Forecast
Issued by NWS

Home | Current Version | Previous Version | Text Only | Print | Product List | Glossary On
Versions: 1 2 3 4 5 6 7 8 9 10 11 12 13 14 15 16 17 18 19 20 21 22 23 24 25 26 27 28 29 30 31 32 33 34 35 36 37 38 39 40 41 42 43 44 45 46 47 48 49 50
169
FTUS45 KBOU 302335
TAFBJC
TAF
KBJC 302335Z 0100/0124 35014G24KT 5SM -SN BR BKN008 OVC020
      TEMPO 0100/0101 2SM -SN BR BKN006
     FM010200 34012KT 6SM -SN BR BKN010 OVC022
      TEMPO 0102/0104 3SM -SN BR BKN005 OVC012
     FM010400 33012KT P6SM VCSH BKN010 OVC020
     FM011200 35010KT 3SM -SN BR BKN005 OVC015
     FM011700 02009KT P6SM VCSH SCT010 OVC020
     FM012300 07007KT P6SM SCT015 BKN035=

USA.gov is the U.S. government's official web portal to all federal, state and local government web resources and services.